Time;durP1;ratioP1;P1;durP2;ratioP2;P2;SDS_P1;SDS_P2;PMS_P1;PMS_P2;Temp;Humidity;BMP_temperature;BMP_pressure;BME280_temperature;BME280_humidity;BME280_pressure;Samples;Min_cycle;Max_cycle;Signal;HPM_P1;HPM_P2
2023/01/20 00:00:11;;;;;;;53.57;29.30;;;4.60;99.90;;;;;;5003613;28;20226;-67
2023/01/20 00:03:00;;;;;;;53.63;27.77;;;4.50;99.90;;;;;;5015395;28;20871;-67
2023/01/20 00:05:52;;;;;;;54.67;28.77;;;4.50;99.90;;;;;;5000827;28;20234;-67
2023/01/20 00:08:41;;;;;;;53.27;28.57;;;4.50;99.90;;;;;;5004859;28;20214;-66
2023/01/20 00:11:31;;;;;;;55.80;28.47;;;4.50;99.90;;;;;;5004298;28;21045;-66
2023/01/20 00:14:19;;;;;;;53.97;29.10;;;4.40;99.90;;;;;;5001050;28;20527;-68
2023/01/20 00:17:10;;;;;;;50.63;27.57;;;4.40;99.90;;;;;;5004195;28;20290;-69
2023/01/20 00:19:58;;;;;;;53.30;28.80;;;4.40;99.90;;;;;;4995897;28;20651;-67
2023/01/20 00:22:47;;;;;;;56.43;29.60;;;4.40;99.90;;;;;;4995688;28;20554;-66
2023/01/20 00:25:36;;;;;;;58.53;31.00;;;4.30;99.90;;;;;;4998396;28;20241;-68
2023/01/20 00:28:25;;;;;;;58.30;31.50;;;4.30;99.90;;;;;;5000642;28;20697;-67
2023/01/20 00:31:16;;;;;;;63.73;32.70;;;4.30;99.90;;;;;;5014337;28;20731;-66
2023/01/20 00:34:07;;;;;;;60.30;32.70;;;4.30;99.90;;;;;;4998362;28;20222;-67
2023/01/20 00:36:55;;;;;;;63.87;33.80;;;4.40;99.90;;;;;;4996426;28;20229;-65
2023/01/20 00:39:44;;;;;;;66.27;34.87;;;4.40;99.90;;;;;;5000454;28;20234;-67
2023/01/20 00:42:33;;;;;;;69.60;35.87;;;4.40;99.90;;;;;;5002829;28;20233;-65
2023/01/20 00:45:22;;;;;;;63.00;34.13;;;4.30;99.90;;;;;;5001126;28;20226;-65
2023/01/20 00:48:11;;;;;;;56.93;29.93;;;4.20;99.90;;;;;;4999405;28;20226;-67
2023/01/20 00:51:01;;;;;;;56.27;29.17;;;4.30;99.90;;;;;;4995721;28;20226;-65
2023/01/20 00:53:50;;;;;;;54.57;29.67;;;4.30;99.90;;;;;;5013846;28;20230;-65
2023/01/20 00:56:39;;;;;;;53.00;27.93;;;4.40;99.90;;;;;;5000990;28;20234;-68
2023/01/20 00:59:27;;;;;;;51.60;26.97;;;4.30;99.90;;;;;;5013398;28;20438;-66
2023/01/20 01:02:17;;;;;;;48.50;26.40;;;4.40;99.90;;;;;;5024451;28;20316;-67
2023/01/20 01:05:06;;;;;;;42.77;25.10;;;4.20;99.90;;;;;;5001586;28;20221;-68
2023/01/20 01:07:57;;;;;;;45.00;24.60;;;4.20;99.90;;;;;;5011395;28;20226;-67
2023/01/20 01:10:46;;;;;;;43.50;24.90;;;4.20;99.90;;;;;;5001999;28;20235;-66
2023/01/20 01:13:36;;;;;;;40.03;22.23;;;4.20;99.90;;;;;;5014758;28;20597;-66
2023/01/20 01:16:24;;;;;;;41.50;23.50;;;4.30;99.90;;;;;;4997407;28;20231;-68
2023/01/20 01:19:13;;;;;;;45.00;23.97;;;4.20;99.90;;;;;;5005033;28;20238;-67
2023/01/20 01:22:03;;;;;;;43.73;24.03;;;4.30;99.90;;;;;;4998604;28;20336;-67
2023/01/20 01:24:55;;;;;;;40.90;23.40;;;4.20;99.90;;;;;;4998468;28;20680;-66
2023/01/20 01:27:44;;;;;;;41.73;23.10;;;4.10;99.90;;;;;;4996076;28;20234;-66
2023/01/20 01:30:33;;;;;;;38.17;21.77;;;4.20;99.90;;;;;;4998454;28;20562;-66
2023/01/20 01:33:22;;;;;;;42.13;22.70;;;4.30;99.90;;;;;;5016251;28;20214;-67
2023/01/20 01:36:14;;;;;;;39.57;22.37;;;4.30;99.90;;;;;;4999479;28;20375;-68
2023/01/20 01:39:02;;;;;;;39.27;21.97;;;4.20;99.90;;;;;;5001138;28;20222;-66
2023/01/20 01:41:53;;;;;;;40.17;22.33;;;4.20;99.90;;;;;;5013827;28;20752;-67
2023/01/20 01:45:23;;;;;;;39.10;21.77;;;4.10;99.90;;;;;;5002885;28;20720;-66
2023/01/20 01:48:12;;;;;;;39.27;22.27;;;4.10;99.90;;;;;;4975378;28;20653;-65
2023/01/20 01:51:05;;;;;;;39.20;21.93;;;4.20;99.90;;;;;;4996693;28;20857;-69
2023/01/20 01:54:00;;;;;;;39.70;21.73;;;4.20;99.90;;;;;;5001290;28;20226;-67
2023/01/20 01:56:50;;;;;;;37.17;21.30;;;4.20;99.90;;;;;;4997621;28;20241;-66
2023/01/20 01:59:40;;;;;;;37.13;21.53;;;4.20;99.90;;;;;;4999552;28;20222;-66
2023/01/20 02:02:30;;;;;;;39.47;22.03;;;4.30;99.90;;;;;;4999643;28;20218;-68
2023/01/20 02:05:20;;;;;;;38.50;21.03;;;4.30;99.90;;;;;;5018909;28;20304;-66
2023/01/20 02:08:09;;;;;;;38.07;21.27;;;4.30;99.90;;;;;;4998035;28;20332;-67
2023/01/20 02:10:58;;;;;;;37.87;21.30;;;4.30;99.90;;;;;;5006211;28;20229;-67
2023/01/20 02:13:47;;;;;;;38.00;21.53;;;4.30;99.90;;;;;;5000982;28;20237;-67
2023/01/20 02:16:49;;;;;;;38.87;21.63;;;4.30;99.90;;;;;;4998520;28;20760;-67
2023/01/20 02:20:20;;;;;;;39.00;22.57;;;4.40;99.90;;;;;;5003006;28;20217;-68
2023/01/20 02:23:13;;;;;;;40.50;21.07;;;4.30;99.90;;;;;;4998961;28;20222;-67
2023/01/20 02:26:40;;;;;;;40.43;22.37;;;4.30;99.90;;;;;;4997064;28;20230;-66
2023/01/20 02:29:52;;;;;;;43.00;22.23;;;4.20;99.90;;;;;;5004013;28;20956;-67
2023/01/20 02:32:53;;;;;;;41.27;22.03;;;4.30;99.90;;;;;;5001922;28;20593;-68
2023/01/20 02:35:46;;;;;;;41.90;22.47;;;4.30;99.90;;;;;;4994545;28;20218;-67
2023/01/20 02:38:42;;;;;;;44.13;23.07;;;4.30;99.90;;;;;;5001006;28;20253;-67
2023/01/20 02:41:38;;;;;;;45.40;22.90;;;4.40;99.90;;;;;;5001488;28;20238;-64
2023/01/20 02:44:35;;;;;;;43.50;22.93;;;4.30;99.90;;;;;;4997529;28;20233;-68
2023/01/20 02:47:31;;;;;;;44.27;23.73;;;4.40;99.90;;;;;;5007313;28;20226;-68
2023/01/20 02:50:25;;;;;;;44.83;22.63;;;4.40;99.90;;;;;;5000511;28;20257;-66
2023/01/20 02:53:16;;;;;;;46.63;23.67;;;4.20;99.90;;;;;;5003932;28;20232;-66
2023/01/20 02:56:08;;;;;;;48.50;24.30;;;4.20;99.90;;;;;;5002343;28;20225;-66
2023/01/20 02:59:01;;;;;;;50.73;25.00;;;4.20;99.90;;;;;;5001592;28;20229;-68
2023/01/20 03:01:54;;;;;;;46.37;23.37;;;4.30;99.90;;;;;;5010507;28;20229;-67
2023/01/20 03:04:50;;;;;;;49.27;24.43;;;4.30;99.90;;;;;;5003633;28;20709;-67
2023/01/20 03:07:42;;;;;;;46.20;22.97;;;4.30;99.90;;;;;;5011744;28;20244;-66
2023/01/20 03:10:35;;;;;;;51.80;24.20;;;4.30;99.90;;;;;;5000583;28;20230;-66
2023/01/20 03:13:30;;;;;;;47.57;23.47;;;4.40;99.90;;;;;;5005230;28;20222;-68
2023/01/20 03:16:22;;;;;;;46.20;23.17;;;4.40;99.90;;;;;;5005048;28;20225;-67
2023/01/20 03:19:11;;;;;;;44.27;21.30;;;4.30;99.90;;;;;;5003365;28;20673;-65
2023/01/20 03:22:00;;;;;;;46.97;22.17;;;4.30;99.90;;;;;;5017754;28;20316;-66
2023/01/20 03:24:51;;;;;;;45.87;21.73;;;4.40;99.90;;;;;;5001260;28;20364;-66
2023/01/20 03:27:41;;;;;;;48.13;23.17;;;4.40;99.90;;;;;;5017946;28;20233;-66
2023/01/20 03:30:30;;;;;;;44.57;22.60;;;4.40;99.90;;;;;;5003834;28;20226;-67
2023/01/20 03:33:19;;;;;;;45.10;22.03;;;4.50;99.90;;;;;;5011860;28;20214;-66
2023/01/20 03:36:09;;;;;;;47.27;23.27;;;4.30;99.90;;;;;;5018416;28;20234;-67
2023/01/20 03:38:59;;;;;;;49.17;23.57;;;4.30;99.90;;;;;;4996919;28;20229;-67
2023/01/20 03:42:01;;;;;;;49.63;23.07;;;4.40;99.90;;;;;;5000030;28;20238;-67
2023/01/20 03:45:01;;;;;;;46.40;23.07;;;4.50;99.90;;;;;;4999429;28;20460;-67
2023/01/20 03:47:57;;;;;;;48.03;22.93;;;4.40;99.90;;;;;;5005636;28;20754;-67
2023/01/20 03:50:52;;;;;;;53.63;23.80;;;4.40;99.90;;;;;;5002338;28;20234;-65
2023/01/20 03:53:47;;;;;;;53.27;23.77;;;4.40;99.90;;;;;;4996259;28;20222;-65
2023/01/20 03:56:41;;;;;;;58.53;26.03;;;4.50;99.90;;;;;;4998287;28;20557;-67
2023/01/20 03:59:34;;;;;;;53.90;25.17;;;4.30;99.90;;;;;;5003264;28;20214;-66
2023/01/20 04:02:23;;;;;;;53.33;25.50;;;4.40;99.90;;;;;;5003151;28;20226;-66
2023/01/20 04:05:14;;;;;;;58.37;25.63;;;4.30;99.90;;;;;;5025329;28;20225;-67
2023/01/20 04:08:07;;;;;;;58.17;25.73;;;4.50;99.90;;;;;;4992912;28;20500;-64
2023/01/20 04:10:59;;;;;;;58.87;25.70;;;4.50;99.90;;;;;;5013950;28;20652;-66
2023/01/20 04:13:49;;;;;;;61.50;27.50;;;4.40;99.90;;;;;;5003157;28;21110;-65
2023/01/20 04:16:40;;;;;;;55.90;26.60;;;4.40;99.90;;;;;;5000749;28;20226;-67
2023/01/20 04:19:28;;;;;;;59.80;25.40;;;4.50;99.90;;;;;;5002387;28;20321;-65
2023/01/20 04:22:22;;;;;;;62.03;27.03;;;4.60;99.90;;;;;;5001853;28;20226;-65
2023/01/20 04:25:17;;;;;;;61.37;25.53;;;4.50;99.90;;;;;;5000478;28;20593;-65
2023/01/20 04:28:06;;;;;;;54.20;24.67;;;4.50;99.90;;;;;;5004284;28;20542;-65
2023/01/20 04:30:54;;;;;;;60.57;26.83;;;4.50;99.90;;;;;;5000583;28;20900;-68
2023/01/20 04:33:45;;;;;;;56.07;25.80;;;4.40;99.90;;;;;;4998709;28;21178;-68
2023/01/20 04:36:33;;;;;;;60.70;26.80;;;4.50;99.90;;;;;;5000964;28;20225;-67
2023/01/20 04:39:22;;;;;;;64.03;26.63;;;4.50;99.90;;;;;;4988239;28;20242;-65
2023/01/20 04:42:11;;;;;;;58.43;25.00;;;4.50;99.90;;;;;;4994057;28;20218;-64
2023/01/20 04:45:00;;;;;;;55.50;24.93;;;4.50;99.90;;;;;;5006233;28;20306;-67
2023/01/20 04:47:48;;;;;;;53.67;23.53;;;4.40;99.90;;;;;;5002264;28;20260;-67
2023/01/20 04:50:40;;;;;;;60.20;25.47;;;4.20;99.90;;;;;;5012934;28;20230;-67
2023/01/20 04:53:29;;;;;;;55.43;25.13;;;4.40;99.90;;;;;;5015264;28;20236;-65
2023/01/20 04:56:18;;;;;;;51.07;23.27;;;4.20;99.90;;;;;;5004079;28;20328;-66
2023/01/20 04:59:07;;;;;;;57.13;24.13;;;4.40;99.90;;;;;;5003524;28;20230;-67
2023/01/20 05:01:56;;;;;;;53.93;24.60;;;4.50;99.90;;;;;;5003195;28;20218;-66
2023/01/20 05:04:44;;;;;;;55.77;24.50;;;4.50;99.90;;;;;;4998746;28;20613;-67
2023/01/20 05:07:35;;;;;;;57.67;25.53;;;4.50;99.90;;;;;;5012994;28;20257;-69
2023/01/20 05:10:23;;;;;;;57.43;26.40;;;4.40;99.90;;;;;;5013545;28;20992;-67
2023/01/20 05:13:12;;;;;;;57.03;25.77;;;4.50;99.90;;;;;;4998939;28;20241;-68
2023/01/20 05:16:01;;;;;;;51.53;23.63;;;4.40;99.90;;;;;;5002131;28;20262;-69
2023/01/20 05:18:51;;;;;;;55.33;23.97;;;4.40;99.90;;;;;;4998577;28;20345;-66
2023/01/20 05:21:41;;;;;;;58.33;23.87;;;4.40;99.90;;;;;;5000739;28;20292;-66
2023/01/20 05:24:32;;;;;;;53.20;23.90;;;4.50;99.90;;;;;;5001804;28;20230;-68
2023/01/20 05:27:21;;;;;;;53.33;23.87;;;4.60;99.90;;;;;;5002207;28;20222;-64
2023/01/20 05:30:11;;;;;;;50.73;23.43;;;4.60;99.90;;;;;;5002886;28;20695;-66
2023/01/20 05:32:59;;;;;;;53.73;23.23;;;4.70;99.90;;;;;;4996155;28;20312;-66
2023/01/20 05:35:48;;;;;;;51.23;23.87;;;4.50;99.90;;;;;;5000370;28;20218;-66
2023/01/20 05:38:37;;;;;;;52.20;22.67;;;4.50;99.90;;;;;;5003060;28;20221;-64
2023/01/20 05:41:27;;;;;;;53.23;24.50;;;4.40;99.90;;;;;;5006899;28;20299;-65
2023/01/20 05:44:17;;;;;;;53.43;23.33;;;4.50;99.90;;;;;;4998133;28;20273;-66
2023/01/20 05:47:05;;;;;;;50.90;22.67;;;4.50;99.90;;;;;;5003118;28;20225;-65
2023/01/20 05:49:54;;;;;;;53.00;23.60;;;4.70;99.90;;;;;;4996199;28;20239;-64
2023/01/20 05:52:43;;;;;;;46.40;22.63;;;4.50;99.90;;;;;;5003950;28;20232;-66
2023/01/20 05:55:32;;;;;;;48.57;22.80;;;4.40;99.90;;;;;;4999510;28;20783;-68
2023/01/20 05:58:22;;;;;;;53.43;23.37;;;4.50;99.90;;;;;;5001883;28;20218;-66
2023/01/20 06:01:13;;;;;;;55.43;23.43;;;4.50;99.90;;;;;;4996362;28;20220;-66
2023/01/20 06:04:02;;;;;;;53.23;23.97;;;4.50;99.90;;;;;;5002226;28;20297;-68
2023/01/20 06:06:50;;;;;;;55.47;24.20;;;4.60;99.90;;;;;;4997435;28;20335;-66
2023/01/20 06:09:39;;;;;;;57.97;25.13;;;4.70;99.90;;;;;;5001457;28;20226;-67
2023/01/20 06:12:31;;;;;;;59.07;25.20;;;4.60;99.90;;;;;;5000732;28;20257;-67
2023/01/20 06:15:22;;;;;;;58.30;24.20;;;4.60;99.90;;;;;;5012073;28;21026;-66
2023/01/20 06:18:11;;;;;;;55.17;23.70;;;4.70;99.90;;;;;;4999294;28;20222;-66
2023/01/20 06:21:00;;;;;;;56.80;24.93;;;4.70;99.90;;;;;;5002007;28;20384;-66
2023/01/20 06:23:49;;;;;;;62.33;25.10;;;4.80;99.90;;;;;;5002363;28;20237;-65
2023/01/20 06:26:38;;;;;;;61.30;25.30;;;4.70;99.90;;;;;;5000526;28;20225;-64
2023/01/20 06:29:27;;;;;;;61.40;24.73;;;4.80;99.90;;;;;;4999240;28;20284;-66
2023/01/20 06:32:19;;;;;;;58.37;24.53;;;4.80;99.90;;;;;;5002989;28;20222;-66
2023/01/20 06:35:09;;;;;;;56.70;23.97;;;4.80;99.90;;;;;;4997106;28;20218;-67
2023/01/20 06:37:58;;;;;;;58.17;24.07;;;4.80;99.90;;;;;;5003803;28;20218;-61
2023/01/20 06:40:48;;;;;;;59.53;24.30;;;4.70;99.90;;;;;;5002686;28;20334;-67
2023/01/20 06:43:38;;;;;;;57.43;24.37;;;4.80;99.90;;;;;;5000142;28;20222;-67
2023/01/20 06:46:29;;;;;;;54.87;25.00;;;4.80;99.90;;;;;;5015495;28;20230;-66
2023/01/20 06:49:19;;;;;;;57.50;23.70;;;4.90;99.90;;;;;;5003775;28;20766;-68
2023/01/20 06:52:08;;;;;;;59.00;24.60;;;5.00;99.90;;;;;;4998520;28;20873;-69
2023/01/20 06:54:57;;;;;;;58.50;23.40;;;4.90;99.90;;;;;;4999977;28;20238;-67
2023/01/20 06:57:46;;;;;;;55.90;23.50;;;4.90;99.90;;;;;;4997904;28;20308;-68
2023/01/20 07:00:35;;;;;;;49.00;21.30;;;4.50;99.90;;;;;;4999662;28;21020;-67
2023/01/20 07:03:24;;;;;;;52.23;21.90;;;4.40;99.90;;;;;;5002040;28;20736;-68
2023/01/20 07:06:29;;;;;;;49.67;21.77;;;4.50;99.90;;;;;;5012619;28;20214;-66
2023/01/20 07:09:18;;;;;;;47.63;21.47;;;4.60;99.90;;;;;;4998168;28;20222;-66
2023/01/20 07:12:07;;;;;;;53.17;20.83;;;4.60;99.90;;;;;;5011276;28;20233;-66
2023/01/20 07:14:56;;;;;;;53.83;20.73;;;4.40;99.90;;;;;;5014675;28;20226;-67
2023/01/20 07:17:45;;;;;;;48.00;21.10;;;4.40;99.90;;;;;;5001634;28;20218;-67
2023/01/20 07:20:33;;;;;;;54.47;22.30;;;4.50;99.90;;;;;;4998716;28;20305;-64
2023/01/20 07:23:24;;;;;;;48.77;22.60;;;4.60;99.90;;;;;;5014395;28;20357;-65
2023/01/20 07:26:15;;;;;;;51.17;23.30;;;4.50;99.90;;;;;;4987577;28;20236;-68
2023/01/20 07:29:04;;;;;;;48.60;22.93;;;4.50;99.90;;;;;;4997589;28;20324;-66
2023/01/20 07:31:52;;;;;;;47.60;22.80;;;4.40;99.90;;;;;;4999185;28;20796;-66
2023/01/20 07:34:41;;;;;;;54.67;23.27;;;4.30;99.90;;;;;;4998219;28;20605;-69
2023/01/20 07:37:30;;;;;;;53.23;24.40;;;4.20;99.90;;;;;;5015669;28;20225;-67
2023/01/20 07:40:20;;;;;;;49.40;22.93;;;4.30;99.90;;;;;;5003067;28;20612;-67
2023/01/20 07:43:09;;;;;;;46.93;22.03;;;4.40;99.90;;;;;;5002712;28;20226;-66
2023/01/20 07:45:58;;;;;;;53.23;24.17;;;4.40;99.90;;;;;;5004967;28;20222;-66
2023/01/20 07:48:48;;;;;;;51.83;23.97;;;4.30;99.90;;;;;;4997523;28;20242;-67
2023/01/20 07:51:38;;;;;;;51.43;23.80;;;4.50;99.90;;;;;;5015260;28;20237;-66
2023/01/20 07:54:27;;;;;;;51.83;23.77;;;4.40;99.90;;;;;;5017161;28;20233;-67
2023/01/20 07:57:18;;;;;;;49.87;22.97;;;4.30;99.90;;;;;;5005325;28;20267;-68
2023/01/20 08:00:08;;;;;;;53.17;23.73;;;4.10;99.90;;;;;;4997312;28;20606;-65
2023/01/20 08:02:57;;;;;;;47.97;22.97;;;4.40;99.90;;;;;;5016661;28;20364;-66
2023/01/20 08:05:46;;;;;;;52.03;23.73;;;4.40;99.90;;;;;;5011287;28;20276;-67
2023/01/20 08:08:35;;;;;;;52.37;24.00;;;4.40;99.90;;;;;;5000734;28;20218;-67
2023/01/20 08:11:24;;;;;;;57.87;23.20;;;4.50;99.90;;;;;;5001338;28;20222;-66
2023/01/20 08:14:14;;;;;;;53.00;23.57;;;4.60;99.90;;;;;;5001427;28;20313;-65
2023/01/20 08:17:04;;;;;;;54.53;24.73;;;4.70;99.90;;;;;;5015154;28;20222;-67
2023/01/20 08:19:53;;;;;;;51.63;23.77;;;4.60;99.90;;;;;;4999378;28;20230;-67
2023/01/20 08:22:42;;;;;;;52.80;22.43;;;4.70;99.90;;;;;;5012508;28;20236;-67
2023/01/20 08:25:30;;;;;;;47.83;23.10;;;4.80;99.90;;;;;;5001072;28;20229;-65
2023/01/20 08:28:19;;;;;;;46.87;21.13;;;4.70;99.90;;;;;;5017791;28;20233;-67
2023/01/20 08:31:15;;;;;;;46.80;22.13;;;4.70;99.90;;;;;;5000929;28;20628;-65
2023/01/20 08:34:05;;;;;;;48.40;22.03;;;4.80;99.90;;;;;;5016851;28;20237;-65
2023/01/20 08:36:56;;;;;;;49.53;21.83;;;4.80;99.90;;;;;;5001067;28;20226;-65
2023/01/20 08:39:45;;;;;;;45.00;21.60;;;4.80;99.90;;;;;;5003225;28;20228;-69
2023/01/20 08:42:38;;;;;;;46.30;20.93;;;4.80;99.90;;;;;;5013319;28;20227;-67
2023/01/20 08:45:27;;;;;;;45.27;21.00;;;4.80;99.90;;;;;;5004882;28;20227;-65
2023/01/20 08:48:18;;;;;;;43.93;20.50;;;4.70;99.90;;;;;;5004131;28;20223;-66
2023/01/20 08:51:12;;;;;;;46.67;21.47;;;4.90;99.90;;;;;;4995281;28;20580;-68
2023/01/20 08:54:02;;;;;;;50.50;22.90;;;5.10;99.90;;;;;;5002249;28;20230;-66
2023/01/20 08:56:56;;;;;;;45.33;21.87;;;5.00;99.90;;;;;;5016722;28;20250;-66
2023/01/20 08:59:49;;;;;;;51.33;22.60;;;5.00;99.90;;;;;;5001410;28;20676;-66
2023/01/20 09:02:39;;;;;;;51.17;22.67;;;5.10;99.90;;;;;;5000282;28;20219;-66
2023/01/20 09:05:30;;;;;;;41.93;21.13;;;5.10;99.90;;;;;;5011269;28;20226;-67
2023/01/20 09:08:20;;;;;;;48.83;20.50;;;5.10;99.90;;;;;;5000074;28;20660;-68
2023/01/20 09:11:11;;;;;;;43.90;21.23;;;5.20;99.90;;;;;;5015025;28;20238;-66
2023/01/20 09:14:01;;;;;;;45.17;20.47;;;5.20;99.90;;;;;;5014654;28;20241;-66
2023/01/20 09:16:50;;;;;;;44.90;20.90;;;5.20;99.90;;;;;;5008990;28;20700;-68
2023/01/20 09:19:38;;;;;;;40.37;18.43;;;5.40;99.90;;;;;;5001067;28;20592;-66
2023/01/20 09:22:29;;;;;;;40.47;20.77;;;5.20;99.90;;;;;;5006025;28;20237;-66
2023/01/20 09:25:18;;;;;;;37.90;18.87;;;5.30;99.90;;;;;;5001311;28;20264;-68
2023/01/20 09:28:06;;;;;;;35.73;17.83;;;5.20;99.90;;;;;;4995640;28;20683;-66
2023/01/20 09:30:58;;;;;;;36.63;18.47;;;5.30;99.90;;;;;;5000188;28;20333;-64
2023/01/20 09:33:48;;;;;;;37.87;18.93;;;5.00;99.90;;;;;;5001884;28;20238;-66
2023/01/20 09:36:37;;;;;;;42.17;19.00;;;5.20;99.90;;;;;;5001692;28;20218;-66
2023/01/20 09:45:59;;;;;;;41.57;19.53;;;5.00;99.90;;;;;;4983492;28;20344;-66
2023/01/20 09:55:26;;;;;;;39.83;19.73;;;4.70;99.90;;;;;;5002300;28;20283;-66
2023/01/20 09:58:22;;;;;;;38.47;19.53;;;4.70;99.90;;;;;;4999743;28;20233;-66
2023/01/20 10:01:17;;;;;;;37.20;18.77;;;4.70;99.90;;;;;;4995402;28;20226;-65
2023/01/20 10:04:13;;;;;;;37.53;18.97;;;4.70;99.90;;;;;;4996505;28;20242;-66
2023/01/20 10:07:09;;;;;;;37.47;19.60;;;4.40;99.90;;;;;;5002731;28;20252;-66
2023/01/20 10:10:09;;;;;;;38.47;18.13;;;4.50;99.90;;;;;;5008965;28;20238;-66
2023/01/20 10:13:05;;;;;;;36.53;18.87;;;4.70;99.90;;;;;;5001243;28;20230;-66
2023/01/20 10:15:57;;;;;;;39.33;20.00;;;4.80;99.90;;;;;;5010827;28;20237;-64
2023/01/20 10:18:51;;;;;;;36.27;18.83;;;5.00;99.90;;;;;;5005947;28;20289;-64
2023/01/20 10:21:44;;;;;;;37.37;19.63;;;5.00;99.90;;;;;;5000778;28;20295;-65
2023/01/20 10:24:37;;;;;;;40.43;19.80;;;5.00;99.90;;;;;;4999574;28;20588;-65
2023/01/20 10:27:29;;;;;;;36.10;19.43;;;4.90;99.90;;;;;;5004983;28;20242;-66
2023/01/20 10:30:24;;;;;;;39.53;19.80;;;5.00;99.90;;;;;;5014184;28;20351;-65
2023/01/20 10:33:15;;;;;;;34.93;19.23;;;4.80;99.90;;;;;;4998605;28;20231;-65
2023/01/20 10:36:04;;;;;;;38.33;20.13;;;4.40;99.90;;;;;;5002822;28;20357;-65
2023/01/20 10:38:58;;;;;;;39.23;21.30;;;4.60;99.90;;;;;;5001190;28;20359;-65
2023/01/20 10:41:52;;;;;;;40.77;21.37;;;4.40;99.90;;;;;;5002762;28;20230;-65
2023/01/20 10:44:42;;;;;;;38.17;21.10;;;4.60;99.90;;;;;;4996894;28;20431;-66
2023/01/20 10:47:43;;;;;;;43.80;21.93;;;4.70;99.90;;;;;;4998923;28;20877;-67
2023/01/20 10:50:47;;;;;;;42.40;21.30;;;4.70;99.90;;;;;;4994757;28;20224;-68
2023/01/20 10:53:47;;;;;;;41.03;20.83;;;4.60;99.90;;;;;;4995613;28;20368;-66
2023/01/20 10:56:42;;;;;;;39.27;19.87;;;4.80;99.90;;;;;;4997036;28;20222;-65
2023/01/20 10:59:34;;;;;;;30.27;17.10;;;5.00;99.90;;;;;;4995965;28;20226;-67
2023/01/20 11:02:26;;;;;;;30.30;17.47;;;4.70;99.90;;;;;;4997456;28;20226;-65
2023/01/20 11:05:20;;;;;;;34.10;18.00;;;4.90;99.90;;;;;;5005131;28;20653;-65
2023/01/20 11:08:17;;;;;;;32.77;17.60;;;4.90;99.90;;;;;;5004143;28;20230;-67
2023/01/20 11:11:12;;;;;;;30.73;18.03;;;5.10;99.90;;;;;;4999318;28;20685;-67
2023/01/20 11:14:02;;;;;;;33.10;19.10;;;5.30;99.90;;;;;;5001888;28;20233;-66
2023/01/20 11:16:57;;;;;;;33.13;18.70;;;5.20;99.90;;;;;;5003350;28;20229;-65
2023/01/20 11:19:49;;;;;;;36.67;17.83;;;5.20;99.90;;;;;;5002911;28;20238;-68
2023/01/20 11:22:45;;;;;;;33.13;17.93;;;5.30;99.90;;;;;;5001999;28;20230;-69
2023/01/20 11:25:34;;;;;;;33.47;19.03;;;5.20;99.90;;;;;;5003171;28;20218;-66
2023/01/20 11:28:24;;;;;;;37.30;20.57;;;5.20;99.90;;;;;;5011895;28;20262;-67
2023/01/20 11:31:13;;;;;;;33.67;19.03;;;5.10;99.90;;;;;;5003608;28;20712;-69
2023/01/20 11:34:19;;;;;;;33.33;19.23;;;4.40;99.90;;;;;;4998329;28;20538;-67
2023/01/20 11:37:17;;;;;;;31.60;17.73;;;4.40;99.90;;;;;;4992034;28;20226;-67
2023/01/20 11:40:20;;;;;;;32.10;17.43;;;4.40;99.90;;;;;;4995945;28;20565;-67
2023/01/20 11:43:31;;;;;;;34.37;17.43;;;4.50;99.90;;;;;;4998879;28;20218;-69
2023/01/20 11:46:26;;;;;;;34.37;16.87;;;4.40;99.90;;;;;;5003099;28;20257;-67
2023/01/20 11:49:20;;;;;;;28.47;16.07;;;4.50;99.90;;;;;;4994443;28;20812;-67
2023/01/20 11:52:20;;;;;;;28.37;16.83;;;4.70;99.90;;;;;;4998077;28;20222;-66
2023/01/20 11:55:13;;;;;;;30.60;16.30;;;4.80;99.90;;;;;;4996815;28;20230;-66
2023/01/20 11:58:04;;;;;;;29.50;17.20;;;4.70;99.90;;;;;;5003234;28;20349;-66
2023/01/20 12:01:01;;;;;;;31.40;17.60;;;4.70;99.90;;;;;;5002231;28;20698;-67
2023/01/20 12:04:21;;;;;;;30.87;17.90;;;4.50;99.90;;;;;;5001943;28;20237;-66
2023/01/20 12:07:14;;;;;;;29.87;16.90;;;4.40;99.90;;;;;;4993139;28;20784;-68
2023/01/20 12:10:12;;;;;;;32.63;17.03;;;4.70;99.90;;;;;;5011618;28;20720;-66
2023/01/20 12:13:07;;;;;;;28.13;16.27;;;4.50;99.90;;;;;;5014434;28;20254;-67
2023/01/20 12:16:01;;;;;;;33.67;16.87;;;4.50;99.90;;;;;;4992411;28;20222;-66
2023/01/20 12:18:55;;;;;;;31.63;16.30;;;4.40;99.90;;;;;;5015652;28;20222;-65
2023/01/20 12:21:52;;;;;;;31.57;17.37;;;4.50;99.90;;;;;;5000661;28;20546;-66
2023/01/20 12:25:07;;;;;;;34.93;17.67;;;4.50;99.90;;;;;;4997956;28;20214;-65
2023/01/20 12:28:02;;;;;;;32.20;18.87;;;4.30;99.90;;;;;;4999160;28;20315;-64
2023/01/20 12:31:01;;;;;;;33.23;18.37;;;4.50;99.90;;;;;;4996564;28;20678;-64
2023/01/20 12:33:55;;;;;;;39.10;19.93;;;4.10;99.90;;;;;;5001709;28;20417;-65
2023/01/20 12:37:04;;;;;;;40.87;20.80;;;3.80;99.90;;;;;;4995814;28;20411;-65
2023/01/20 12:40:06;;;;;;;35.10;20.00;;;3.60;99.90;;;;;;4998763;28;20230;-65
2023/01/20 12:43:20;;;;;;;37.87;20.43;;;3.80;99.90;;;;;;5011202;28;20702;-65
2023/01/20 12:46:33;;;;;;;39.77;19.60;;;3.70;99.90;;;;;;4999630;28;20235;-65
2023/01/20 12:49:47;;;;;;;39.50;19.07;;;3.80;99.90;;;;;;5001885;28;20593;-65
2023/01/20 12:52:48;;;;;;;35.37;18.37;;;3.50;99.90;;;;;;5002166;28;20316;-66
2023/01/20 12:55:51;;;;;;;35.13;17.87;;;3.50;99.90;;;;;;5003753;28;20367;-66
2023/01/20 12:58:50;;;;;;;34.73;18.80;;;3.70;99.90;;;;;;4999135;28;20601;-67
2023/01/20 13:01:54;;;;;;;35.67;16.80;;;3.80;99.90;;;;;;4996087;28;20226;-65
2023/01/20 13:05:17;;;;;;;30.07;15.77;;;3.80;99.90;;;;;;4994807;28;20716;-67
2023/01/20 13:08:13;;;;;;;23.33;12.33;;;3.80;99.90;;;;;;4996977;28;20612;-66
2023/01/20 13:11:15;;;;;;;21.53;12.77;;;3.60;99.90;;;;;;5020724;22;20242;-76
2023/01/20 13:14:14;;;;;;;25.50;13.47;;;3.50;99.90;;;;;;4989571;28;20229;-77
2023/01/20 13:17:17;;;;;;;29.07;14.53;;;3.70;99.90;;;;;;4980279;28;20875;-79
2023/01/20 13:20:19;;;;;;;25.60;14.33;;;3.70;99.90;;;;;;4997846;28;20320;-77
2023/01/20 13:23:13;;;;;;;27.97;13.60;;;3.70;99.90;;;;;;4990103;28;20222;-77
2023/01/20 13:26:05;;;;;;;29.87;14.63;;;3.70;99.90;;;;;;4989994;28;20223;-77
2023/01/20 13:28:55;;;;;;;24.17;14.47;;;3.70;99.90;;;;;;4991916;28;20265;-76
2023/01/20 13:31:46;;;;;;;23.03;13.40;;;3.90;99.90;;;;;;4992127;28;20234;-78
2023/01/20 13:34:40;;;;;;;27.03;13.20;;;3.70;99.90;;;;;;4994365;28;20344;-77
2023/01/20 13:37:35;;;;;;;21.80;12.00;;;3.80;99.90;;;;;;4988408;28;20234;-82
2023/01/20 13:40:49;;;;;;;20.13;11.17;;;3.50;99.90;;;;;;4983416;28;20226;-80
2023/01/20 13:43:53;;;;;;;18.80;10.67;;;3.40;99.90;;;;;;4998185;28;20228;-80
2023/01/20 13:46:47;;;;;;;19.83;10.93;;;3.40;99.90;;;;;;4992079;28;20222;-81
2023/01/20 13:49:50;;;;;;;20.53;11.83;;;3.60;99.90;;;;;;4995641;28;20232;-80
2023/01/20 13:53:20;;;;;;;18.33;10.97;;;3.70;99.90;;;;;;4981367;28;20796;-82
2023/01/20 13:56:32;;;;;;;18.90;10.70;;;3.60;99.90;;;;;;4976336;28;20237;-80
2023/01/20 13:59:23;;;;;;;19.77;10.13;;;3.70;99.90;;;;;;4986030;28;20218;-78
2023/01/20 14:02:17;;;;;;;19.83;10.70;;;3.60;99.90;;;;;;4982533;28;20358;-78
2023/01/20 14:05:22;;;;;;;16.30;10.03;;;3.70;99.90;;;;;;4982987;28;20323;-78
2023/01/20 14:08:14;;;;;;;19.90;11.13;;;3.70;99.90;;;;;;5003940;28;20601;-78
2023/01/20 14:11:07;;;;;;;19.90;11.20;;;3.50;99.90;;;;;;4995491;28;20261;-77
2023/01/20 14:13:58;;;;;;;19.63;11.53;;;3.20;99.90;;;;;;4998623;28;20227;-77
2023/01/20 14:16:47;;;;;;;18.10;11.13;;;3.30;99.90;;;;;;4985158;28;20322;-81
2023/01/20 14:19:37;;;;;;;19.53;11.37;;;3.20;99.90;;;;;;5000846;28;20763;-78
2023/01/20 14:22:31;;;;;;;20.73;12.10;;;3.20;99.90;;;;;;4996266;28;20217;-79
2023/01/20 14:25:23;;;;;;;20.57;12.03;;;3.20;99.90;;;;;;4999017;28;20222;-79
2023/01/20 14:28:19;;;;;;;17.13;10.53;;;3.30;99.90;;;;;;5004598;28;20229;-79
2023/01/20 14:31:36;;;;;;;17.27;10.10;;;3.30;99.90;;;;;;4995370;28;20221;-78
2023/01/20 14:34:29;;;;;;;15.87;10.47;;;3.40;99.90;;;;;;5007369;28;20216;-76
2023/01/20 14:37:27;;;;;;;20.37;11.60;;;3.40;99.90;;;;;;5008689;28;20230;-77
2023/01/20 14:40:24;;;;;;;21.60;12.00;;;3.30;99.90;;;;;;5002938;28;20230;-78
2023/01/20 14:43:19;;;;;;;21.93;12.40;;;3.30;99.90;;;;;;5009597;28;20229;-79
2023/01/20 14:46:08;;;;;;;22.03;13.00;;;3.50;99.90;;;;;;5004063;28;20234;-78
2023/01/20 14:48:58;;;;;;;20.33;12.70;;;3.40;99.90;;;;;;5004588;28;20617;-80
2023/01/20 14:51:50;;;;;;;23.50;13.77;;;3.40;99.90;;;;;;4997932;28;20232;-78
2023/01/20 14:54:43;;;;;;;25.00;14.57;;;3.30;99.90;;;;;;4990698;28;20225;-80
2023/01/20 14:57:34;;;;;;;27.67;15.33;;;3.30;99.90;;;;;;5006156;28;20218;-78
2023/01/20 15:00:26;;;;;;;25.83;15.07;;;3.20;99.90;;;;;;5002654;28;20333;-80